Bookmark and Share
Track history (hours):
 

Cape Express

Last reported at 2014-Apr-22 21:33 UTC. Time now 2014-Apr-24 04:22 UTC.
Position N 26°06' W 079°33'.

Length 29 m; draft 2.2 m.

Type: Cargo ship. MMSI: 370269000.

NotesDate/timePositionNaut miles runAvg speedWind from/ knotsBaromVisibWave heightAir tempDewpointWater temp
2014-Apr-22 21:33N 26°06' W 079°33'1110.9
2014-Apr-22 20:33N 26°06' W 079°45'1110.5
2014-Apr-22 19:33N 26°06' W 079°57'9 8.8
2014-Apr-22 18:33N 26°04' W 080°07'1 1.2
2014-Apr-22 17:33N 26°04' W 080°08'0 0.0
2014-Apr-22 16:33N 26°04' W 080°08'0 0.0
2014-Apr-22 15:33N 26°04' W 080°08'0 0.0
2014-Apr-22 14:33N 26°04' W 080°08'0 0.0
2014-Apr-22 13:33N 26°04' W 080°08'0 0.0
2014-Apr-22 12:33N 26°04' W 080°08'0 0.0
2014-Apr-22 11:33N 26°04' W 080°08'0 0.1
2014-Apr-22 10:33N 26°04' W 080°08'0 0.0
2014-Apr-22 09:33N 26°04' W 080°08'0 0.0
2014-Apr-22 08:33N 26°04' W 080°08'0 0.0
2014-Apr-22 07:33N 26°04' W 080°08'0 0.0
2014-Apr-22 06:33N 26°04' W 080°08'0 0.0
2014-Apr-22 05:33N 26°04' W 080°08'0 0.0
2014-Apr-22 04:33N 26°04' W 080°08'0 0.0
2014-Apr-22 03:33N 26°04' W 080°08'0 0.0
2014-Apr-22 02:33N 26°04' W 080°08'0 0.0
2014-Apr-22 01:33N 26°04' W 080°08'0 0.0
2014-Apr-22 00:33N 26°04' W 080°08'0 0.0
2014-Apr-21 23:33N 26°04' W 080°08'0 0.0
2014-Apr-21 22:33N 26°04' W 080°08'0 0.0
2014-Apr-21 21:33N 26°04' W 080°08'0 0.0
2014-Apr-21 20:33N 26°04' W 080°08'0 0.0
2014-Apr-21 19:33N 26°04' W 080°08'0 0.0
2014-Apr-21 18:33N 26°04' W 080°08'0 0.1
2014-Apr-21 17:33N 26°04' W 080°08'0 0.0
2014-Apr-21 16:33N 26°04' W 080°08'0 0.0
2014-Apr-21 15:33N 26°04' W 080°08'0 0.0
2014-Apr-21 14:33N 26°04' W 080°08'0 0.0
2014-Apr-21 13:33N 26°04' W 080°08'0 0.0
2014-Apr-21 12:33N 26°04' W 080°08'0 0.0
2014-Apr-21 11:33N 26°04' W 080°08'0 0.0
2014-Apr-21 10:33N 26°04' W 080°08'0 0.0
2014-Apr-21 09:33N 26°04' W 080°08'0 0.0
2014-Apr-21 08:33N 26°04' W 080°08'0 0.0
2014-Apr-21 07:33N 26°04' W 080°08'0 0.0
2014-Apr-21 06:33N 26°04' W 080°08'0 0.0
2014-Apr-21 05:33N 26°04' W 080°08'0 0.0
2014-Apr-21 04:33N 26°04' W 080°08'0 0.0
2014-Apr-21 03:33N 26°04' W 080°08'0 0.0
2014-Apr-21 02:33N 26°04' W 080°08'0 0.0
2014-Apr-21 01:33N 26°04' W 080°08'0 0.0
2014-Apr-21 00:33N 26°04' W 080°08'2 2.3
2014-Apr-20 23:33N 26°06' W 080°07'7 7.4
2014-Apr-20 22:33N 26°03' W 079°59'1110.9
2014-Apr-20 21:33N 25°58' W 079°48'1110.7
2014-Apr-20 20:33N 25°52' W 079°38'2 0.1
2014-Apr-20 07:28N 25°51' W 079°36'6 6.3
2014-Apr-20 06:33N 25°54' W 079°42'7 7.2
2014-Apr-20 05:33N 25°58' W 079°49'8 8.1
2014-Apr-20 04:33N 26°02' W 079°57'9 8.6
2014-Apr-20 03:33N 26°05' W 080°05'3 2.5
2014-Apr-20 02:28N 26°04' W 080°08'0 0.0
2014-Apr-20 01:31N 26°04' W 080°08'0 0.0
2014-Apr-20 00:31N 26°04' W 080°08'0 0.0
2014-Apr-19 23:28N 26°04' W 080°08'0 0.0
2014-Apr-19 22:31N 26°04' W 080°08'0 0.0
2014-Apr-19 21:31N 26°04' W 080°08'0 0.0
2014-Apr-19 20:33N 26°04' W 080°08'0 0.0
2014-Apr-19 19:33N 26°04' W 080°08'0 0.0
2014-Apr-19 18:33N 26°04' W 080°08'0 0.0
2014-Apr-19 17:33N 26°04' W 080°08'0 0.0
2014-Apr-19 16:33N 26°04' W 080°08'0 0.0
2014-Apr-19 15:33N 26°04' W 080°08'0 0.0
2014-Apr-19 14:33N 26°04' W 080°08'0 0.0
2014-Apr-19 13:33N 26°04' W 080°08'0 0.0
2014-Apr-19 12:33N 26°04' W 080°08'1 0.6
2014-Apr-19 11:33N 26°04' W 080°07'4 4.3
2014-Apr-19 10:33N 26°04' W 080°02'7 7.3
2014-Apr-19 09:33N 26°03' W 079°55'8 8.4
2014-Apr-19 08:33N 26°00' W 079°46'1010.0
2014-Apr-19 07:33N 25°57' W 079°35'  
2014-Apr-16 08:25N 26°02' W 079°23'8 9.2
2014-Apr-16 07:33N 26°03' W 079°32'9 9.0
2014-Apr-16 06:33N 26°03' W 079°41'9 8.9
2014-Apr-16 05:33N 26°04' W 079°51'9 9.2
2014-Apr-16 04:33N 26°05' W 080°01'6 6.0
2014-Apr-16 03:33N 26°04' W 080°08'0 0.1
2014-Apr-16 02:33N 26°04' W 080°08'0 0.0
2014-Apr-16 01:33N 26°04' W 080°08'0 0.0
2014-Apr-16 00:33N 26°04' W 080°08'0 0.0
2014-Apr-15 23:33N 26°04' W 080°08'4 4.2
2014-Apr-15 22:33N 26°06' W 080°04'9 9.0
2014-Apr-15 21:33N 26°05' W 079°54'8 7.7
2014-Apr-15 20:33N 26°05' W 079°45'8 8.0
2014-Apr-15 19:33N 26°05' W 079°36'15 1.2
2014-Apr-15 06:30N 26°18' W 079°27'1010.7
2014-Apr-15 05:33N 26°14' W 079°37'2110.5
2014-Apr-15 03:33N 26°07' W 079°59'7 7.2
2014-Apr-15 02:33N 26°05' W 080°07'2 2.0
2014-Apr-15 01:34N 26°04' W 080°08'0 0.0
2014-Apr-15 00:34N 26°04' W 080°08'0 0.0
2014-Apr-14 23:34N 26°04' W 080°08'0 0.0
2014-Apr-14 22:34N 26°04' W 080°08'0 0.0
2014-Apr-14 21:34N 26°04' W 080°08'3 2.8
2014-Apr-14 20:34N 26°06' W 080°06'7 6.6
2014-Apr-14 19:34N 26°07' W 079°58'9 8.7
2014-Apr-14 18:34N 26°06' W 079°49'8 8.4
2014-Apr-14 17:34N 26°06' W 079°39'9 8.5
2014-Apr-14 16:31N 26°06' W 079°29'21 0.5
2014-Apr-12 23:32N 26°24' W 079°42'9 9.3
2014-Apr-12 22:33N 26°18' W 079°50'  

Dump ship's entire track history

sailing weather and tide predictions

Cape Express — HO5337 — position and weather